ATL weather

Hartsfield Jackson Atlanta International Airport
Atlanta, Georgia, United States

Public forecast

Using degrees Fahrenheit for public forecast. Weather courtesy of forecast.io.

METAR (pilot weather report)

Retrieved 2018/05/23 05:52 UTC (54 minutes ago):

KATL 230552Z 17004KT 5SM -RA BR BKN004 BKN045 OVC110 21/19 A3006 RMK AO2 SLP170 P0005 60045 T02060194 10233 20206 58011

TAF (pilot weather forecast)

Retrieved 2018/05/23 06:00 UTC (46 minutes ago):

TAF KATL 230558Z 2306/2412 14003KT 5SM -SHRA SCT003 SCT022 OVC060 FM230800 17004KT 6SM -SHRA BR SCT003 BKN005 FM231300 21004KT P6SM OVC007 FM231500 25004KT P6SM OVC015 FM231800 14006KT P6SM SHRA BKN035 PROB30 2319/2401 VRB15G22KT 4SM -TSRA OVC025CB FM240100 17003KT P6SM OVC060 FM240600 20002KT P6SM BKN030